Latest METARs, TAFs and NOTAMs for MMTO


---------------------------------------------------------------------------
	(OBSERVATIONS)
MMTO 171050Z 00000KT 4SM  FEW080 07/06 A3046 RMK 8/030 HZY=
MMTO 170946Z 00000KT 6SM  SCT080 08/06 A3047 RMK 8/030 HZY=
MMTO 170846Z 00000KT 6SM  SCT080 09/08 A3048  RMK SLP153 57008
    915 8/030 HZY=
---------------------------------------------------------------------------
	(TERMINAL AREA FORECAST)
MMTO 171010Z 1712/1818 00000KT 6SM HZ SCT080 TX21/1719Z
    TN08/1712Z
    TEMPO 1712/1715 3SM BR SCT015
    FM171800 08010KT P6SM SCT015 BKN070 PROB40 1722/1802 4SM TSRA
    BKN015CB
    FM180600 07006KT P6SM SCT015 SCT070 BKN200
    BECMG 1810/1812 00000KT=
---------------------------------------------------------------------------
	(NOTAMS)


MMTO A4481/18 RWY 15/33 CLSD. 0400/1100 DLY, 18 AUG 04:00 2018
    UNTIL 20 AUG 11:00 2018. CREATED: 09 AUG 01:07 2018

MMTO A4585/18 RWY 15/33 CLSD. 1530/1630 DAYS 21 AND 28 AUG DAYS
    4, 11, 18 AND 25 SEP, 21 AUG 15:30 2018 UNTIL 25 SEP 16:30
    2018. CREATED: 14 AUG 14:53 2018

---------------------------------------------------------------------------